createdAt,value
2018-06-10T00:00:57.198Z,18.83
2018-06-10T00:03:25.768Z,17.07
2018-06-10T00:05:54.309Z,17.57
2018-06-10T00:08:23.429Z,13.90
2018-06-10T00:10:52.604Z,20.57
2018-06-10T00:13:21.153Z,22.10
2018-06-10T00:15:50.189Z,16.80
2018-06-10T00:18:19.310Z,22.40
2018-06-10T00:20:47.862Z,18.87
2018-06-10T00:23:17.021Z,16.20
2018-06-10T00:25:46.325Z,19.40
2018-06-10T00:28:19.548Z,17.50
2018-06-10T00:30:48.134Z,17.57
2018-06-10T00:33:16.717Z,16.23
2018-06-10T00:35:45.302Z,18.23
2018-06-10T00:38:13.850Z,17.67
2018-06-10T00:40:42.414Z,18.40
2018-06-10T00:43:11.541Z,16.10
2018-06-10T00:45:40.109Z,19.03
2018-06-10T00:48:08.629Z,19.57
2018-06-10T00:50:37.988Z,15.63
2018-06-10T00:53:06.512Z,18.60
2018-06-10T00:55:35.344Z,16.93
2018-06-10T00:58:03.913Z,17.70
2018-06-10T01:00:32.494Z,18.83
2018-06-10T01:03:01.029Z,18.53
2018-06-10T01:05:30.710Z,21.00
2018-06-10T01:07:59.244Z,20.60
2018-06-10T01:10:27.511Z,17.67
2018-06-10T01:12:55.738Z,19.10
2018-06-10T01:15:24.311Z,19.10
2018-06-10T01:17:52.855Z,18.43
2018-06-10T01:20:21.404Z,20.63
2018-06-10T01:22:51.548Z,16.93
2018-06-10T01:25:20.711Z,23.70
2018-06-10T01:27:49.225Z,20.83
2018-06-10T01:30:17.773Z,19.00
2018-06-10T01:32:46.281Z,23.83
2018-06-10T01:35:14.857Z,18.80
2018-06-10T01:37:44.873Z,19.17
2018-06-10T01:40:13.664Z,19.97
2018-06-10T01:42:42.190Z,18.27
2018-06-10T01:45:10.947Z,18.43
2018-06-10T01:47:39.864Z,19.77
2018-06-10T01:50:08.443Z,19.47
2018-06-10T01:52:36.997Z,15.90
2018-06-10T01:55:05.612Z,17.33
2018-06-10T01:57:34.162Z,27.23
2018-06-10T02:00:02.790Z,18.27
2018-06-10T02:02:31.000Z,17.10
2018-06-10T02:04:59.565Z,18.60
2018-06-10T02:07:28.194Z,18.50
2018-06-10T02:09:56.752Z,16.90
2018-06-10T02:12:25.358Z,16.70
2018-06-10T02:14:53.936Z,18.40
2018-06-10T02:17:22.674Z,25.67
2018-06-10T02:19:50.915Z,21.43
2018-06-10T02:22:19.490Z,24.43
2018-06-10T02:24:48.087Z,25.30
2018-06-10T02:27:16.685Z,21.67
2018-06-10T02:29:45.289Z,16.37
2018-06-10T02:32:13.547Z,17.50
2018-06-10T02:34:42.133Z,16.73
2018-06-10T02:37:10.686Z,20.37
2018-06-10T02:39:39.262Z,19.70
2018-06-10T02:42:07.841Z,14.20
2018-06-10T02:44:36.403Z,19.83
2018-06-10T02:47:05.011Z,14.93
2018-06-10T02:49:33.566Z,17.67
2018-06-10T02:52:02.173Z,19.97
2018-06-10T02:54:30.698Z,21.03
2018-06-10T02:57:05.785Z,19.60
2018-06-10T02:59:34.317Z,15.23
2018-06-10T03:02:02.977Z,25.30
2018-06-10T03:04:31.504Z,19.30
2018-06-10T03:07:00.078Z,19.43
2018-06-10T03:09:28.621Z,18.97
2018-06-10T03:11:57.236Z,16.03
2018-06-10T03:14:25.896Z,19.93
2018-06-10T03:16:54.473Z,17.27
2018-06-10T03:19:23.166Z,23.83
2018-06-10T03:21:51.755Z,17.67
2018-06-10T03:24:20.326Z,19.90
2018-06-10T03:26:48.922Z,16.27
2018-06-10T03:29:17.493Z,18.90
2018-06-10T03:31:46.290Z,17.17
2018-06-10T03:34:15.526Z,20.53
2018-06-10T03:36:44.076Z,18.50
2018-06-10T03:39:12.661Z,17.43
2018-06-10T03:41:41.206Z,23.50
2018-06-10T03:44:09.448Z,16.23
2018-06-10T03:46:38.040Z,14.70
2018-06-10T03:49:06.718Z,17.70
2018-06-10T03:51:35.260Z,18.73
2018-06-10T03:54:04.693Z,19.33
2018-06-10T03:56:33.283Z,15.80
2018-06-10T03:59:01.889Z,20.07
2018-06-10T04:01:30.466Z,21.93
2018-06-10T04:03:59.077Z,18.33
2018-06-10T04:06:27.294Z,18.73
2018-06-10T04:08:55.898Z,15.10
2018-06-10T04:11:27.406Z,19.17
2018-06-10T04:13:56.006Z,19.70
2018-06-10T04:16:24.573Z,20.70
2018-06-10T04:18:54.421Z,18.60
2018-06-10T04:21:22.978Z,22.63
2018-06-10T04:23:51.637Z,21.20
2018-06-10T04:26:20.243Z,22.23
2018-06-10T04:28:49.545Z,15.00
2018-06-10T04:31:18.130Z,14.77
2018-06-10T04:33:46.710Z,16.00
2018-06-10T04:36:15.325Z,14.87
2018-06-10T04:38:43.855Z,17.90
2018-06-10T04:41:12.422Z,13.97
2018-06-10T04:43:40.984Z,17.17
2018-06-10T04:46:09.537Z,15.13
2018-06-10T04:48:38.981Z,16.60
2018-06-10T04:51:08.229Z,21.40
2018-06-10T04:53:36.437Z,24.57
2018-06-10T04:56:05.195Z,20.10
2018-06-10T04:58:33.452Z,16.17
2018-06-10T05:01:02.015Z,22.60
2018-06-10T05:03:30.569Z,21.47
2018-06-10T05:05:59.142Z,24.57
2018-06-10T05:08:27.682Z,20.83
2018-06-10T05:10:57.153Z,24.03
2018-06-10T05:13:25.685Z,24.17
2018-06-10T05:15:53.941Z,29.77
2018-06-10T05:18:22.482Z,26.57
2018-06-10T05:20:51.066Z,29.57
2018-06-10T05:23:19.621Z,28.33
2018-06-10T05:25:47.866Z,25.77
2018-06-10T05:28:16.418Z,26.53
2018-06-10T05:30:44.988Z,25.30
2018-06-10T05:33:13.588Z,25.60
2018-06-10T05:35:42.205Z,23.80
2018-06-10T05:38:11.983Z,24.80
2018-06-10T05:40:40.566Z,21.37
2018-06-10T05:43:09.138Z,22.23
2018-06-10T05:45:37.722Z,27.30
2018-06-10T05:48:06.628Z,25.80
2018-06-10T05:50:35.198Z,27.83
2018-06-10T05:53:03.796Z,24.80
2018-06-10T05:55:32.429Z,24.67
2018-06-10T05:58:01.206Z,27.80
2018-06-10T06:00:29.814Z,27.40
2018-06-10T06:02:59.015Z,29.27
2018-06-10T06:05:27.258Z,29.40
2018-06-10T06:07:55.844Z,33.87
2018-06-10T06:10:25.408Z,25.57
2018-06-10T06:12:53.961Z,25.33
2018-06-10T06:15:22.210Z,27.63
2018-06-10T06:17:50.762Z,23.20
2018-06-10T06:20:19.341Z,24.57
2018-06-10T06:22:48.643Z,22.60
2018-06-10T06:25:17.889Z,23.27
2018-06-10T06:27:46.437Z,26.87
2018-06-10T06:30:15.019Z,27.07
2018-06-10T06:32:43.589Z,22.13
2018-06-10T06:35:12.191Z,24.57
2018-06-10T06:37:40.746Z,19.60
2018-06-10T06:40:09.404Z,21.53
2018-06-10T06:42:37.960Z,21.17
2018-06-10T06:45:07.875Z,22.23
2018-06-10T06:47:36.488Z,18.53
2018-06-10T06:50:05.088Z,23.50
2018-06-10T06:52:33.841Z,21.33
2018-06-10T06:55:02.578Z,20.70
2018-06-10T06:57:31.954Z,21.53
2018-06-10T07:00:00.570Z,19.73
2018-06-10T07:02:29.153Z,24.37
2018-06-10T07:04:58.383Z,22.90
2018-06-10T07:07:26.972Z,19.17
2018-06-10T07:09:55.755Z,21.60
2018-06-10T07:12:24.345Z,20.30
2018-06-10T07:14:53.371Z,19.87
2018-06-10T07:17:21.942Z,17.70
2018-06-10T07:19:50.505Z,18.53
2018-06-10T07:22:19.335Z,19.80
2018-06-10T07:24:47.898Z,17.70
2018-06-10T07:27:16.486Z,20.20
2018-06-10T07:29:45.043Z,21.10
2018-06-10T07:32:13.625Z,16.30
2018-06-10T07:34:42.209Z,19.63
2018-06-10T07:37:11.391Z,19.07
2018-06-10T07:39:39.953Z,19.63
2018-06-10T07:42:08.677Z,16.50
2018-06-10T07:44:37.234Z,17.80
2018-06-10T07:47:05.846Z,14.37
2018-06-10T07:49:34.858Z,17.70
2018-06-10T07:52:03.445Z,17.57
2018-06-10T07:54:32.003Z,18.77
2018-06-10T07:57:00.653Z,18.23
2018-06-10T07:59:29.206Z,18.07
2018-06-10T08:01:57.810Z,17.60
2018-06-10T08:04:26.376Z,15.80
2018-06-10T08:06:55.027Z,21.33
2018-06-10T08:09:23.637Z,14.40
2018-06-10T08:11:52.294Z,17.17
2018-06-10T08:14:20.865Z,16.73
2018-06-10T08:16:49.519Z,16.13
2018-06-10T08:19:18.117Z,15.87
2018-06-10T08:21:46.705Z,17.07
2018-06-10T08:24:15.281Z,17.47
2018-06-10T08:26:43.910Z,15.00
2018-06-10T08:29:12.483Z,17.50
2018-06-10T08:31:41.071Z,15.60
2018-06-10T08:34:09.685Z,13.57
2018-06-10T08:36:38.327Z,15.13
2018-06-10T08:39:08.893Z,15.47
2018-06-10T08:41:37.510Z,13.37
2018-06-10T08:44:06.193Z,15.27
2018-06-10T08:46:34.761Z,13.50
2018-06-10T08:49:03.326Z,15.70
2018-06-10T08:51:31.946Z,11.90
2018-06-10T08:54:00.543Z,11.20
2018-06-10T08:56:29.126Z,10.03
2018-06-10T08:58:57.693Z,11.07
2018-06-10T09:01:26.293Z,12.77
2018-06-10T09:03:54.870Z,10.63
2018-06-10T09:06:23.431Z,12.80
2018-06-10T09:08:52.380Z,11.40
2018-06-10T09:11:20.904Z,11.37
2018-06-10T09:13:49.565Z,13.27
2018-06-10T09:16:18.146Z,9.57
2018-06-10T09:18:47.201Z,10.90
2018-06-10T09:21:15.782Z,11.10
2018-06-10T09:23:44.366Z,9.57
2018-06-10T09:26:12.933Z,10.03
2018-06-10T09:28:41.552Z,11.40
2018-06-10T09:31:10.141Z,8.97
2018-06-10T09:33:38.402Z,10.60
2018-06-10T09:36:06.982Z,9.10
2018-06-10T09:38:35.621Z,9.20
2018-06-10T09:41:04.163Z,8.77
2018-06-10T09:43:32.741Z,9.00
2018-06-10T09:46:01.264Z,8.73
2018-06-10T09:48:30.965Z,8.87
2018-06-10T09:50:59.644Z,9.07
2018-06-10T09:53:27.886Z,11.00
2018-06-10T09:55:57.115Z,11.90
2018-06-10T09:58:25.356Z,11.80
2018-06-10T10:00:53.905Z,9.30
2018-06-10T10:03:22.578Z,10.73
2018-06-10T10:05:51.722Z,9.93
2018-06-10T10:08:20.771Z,9.30
2018-06-10T10:10:50.118Z,8.87
2018-06-10T10:13:18.704Z,9.00
2018-06-10T10:15:47.273Z,7.77
2018-06-10T10:18:16.518Z,6.53
2018-06-10T10:20:45.100Z,6.67
2018-06-10T10:23:14.474Z,11.33
2018-06-10T10:25:43.013Z,8.00
2018-06-10T10:28:12.087Z,8.00
2018-06-10T10:30:40.284Z,7.37
2018-06-10T10:33:09.499Z,7.63
2018-06-10T10:35:38.855Z,6.70
2018-06-10T10:38:07.458Z,7.33
2018-06-10T10:40:35.688Z,7.23
2018-06-10T10:43:04.369Z,6.70
2018-06-10T10:45:32.911Z,8.00
2018-06-10T10:48:01.616Z,6.87
2018-06-10T10:50:30.264Z,7.10
2018-06-10T10:52:58.910Z,10.70
2018-06-10T10:55:27.632Z,7.00
2018-06-10T10:57:56.238Z,7.03
2018-06-10T11:00:25.540Z,9.03
2018-06-10T11:02:54.095Z,6.33
2018-06-10T11:05:22.745Z,7.57
2018-06-10T11:07:51.323Z,7.60
2018-06-10T11:10:21.042Z,7.50
2018-06-10T11:12:50.137Z,6.07
2018-06-10T11:15:18.711Z,4.53
2018-06-10T11:17:47.401Z,4.77
2018-06-10T11:20:16.019Z,6.80
2018-06-10T11:22:44.612Z,6.10
2018-06-10T11:25:14.179Z,7.40
2018-06-10T11:27:43.493Z,5.93
2018-06-10T11:30:13.555Z,4.90
2018-06-10T11:32:41.979Z,5.47
2018-06-10T11:35:10.748Z,5.67
2018-06-10T11:37:39.309Z,5.77
2018-06-10T11:40:07.573Z,4.40
2018-06-10T11:42:36.238Z,4.97
2018-06-10T11:45:04.853Z,6.07
2018-06-10T11:47:33.084Z,4.30
2018-06-10T11:50:01.648Z,5.83
2018-06-10T11:52:30.193Z,5.13
2018-06-10T11:54:58.740Z,4.17
2018-06-10T11:57:27.545Z,4.37
2018-06-10T11:59:56.105Z,5.17
2018-06-10T12:02:25.434Z,6.20
2018-06-10T12:04:54.016Z,5.60
2018-06-10T12:07:22.554Z,4.30
2018-06-10T12:09:51.253Z,4.67
2018-06-10T12:12:19.876Z,4.30
2018-06-10T12:14:49.390Z,5.03
2018-06-10T12:17:18.473Z,5.60
2018-06-10T12:19:47.054Z,4.17
2018-06-10T12:22:15.617Z,6.27
2018-06-10T12:24:44.225Z,5.10
2018-06-10T12:27:13.641Z,6.50
2018-06-10T12:29:42.173Z,5.33
2018-06-10T12:32:10.741Z,4.80
2018-06-10T12:34:39.338Z,4.97
2018-06-10T12:37:07.915Z,4.97
2018-06-10T12:39:36.458Z,6.63
2018-06-10T12:42:05.590Z,4.27
2018-06-10T12:44:34.116Z,4.70
2018-06-10T12:47:03.333Z,4.30
2018-06-10T12:49:32.879Z,4.37
2018-06-10T12:52:01.461Z,4.40
2018-06-10T12:54:30.736Z,4.93
2018-06-10T12:57:00.137Z,4.97
2018-06-10T12:59:29.264Z,6.33
2018-06-10T13:01:57.845Z,5.20
2018-06-10T13:04:26.445Z,5.17
2018-06-10T13:06:55.046Z,5.20
2018-06-10T13:09:23.603Z,4.30
2018-06-10T13:11:52.176Z,4.87
2018-06-10T13:14:20.990Z,5.77
2018-06-10T13:16:50.241Z,5.10
2018-06-10T13:19:18.841Z,5.57
2018-06-10T13:21:47.405Z,5.33
2018-06-10T13:24:16.667Z,6.73
2018-06-10T13:26:45.245Z,4.80
2018-06-10T13:29:13.802Z,5.20
2018-06-10T13:31:42.350Z,5.33
2018-06-10T13:34:10.970Z,6.83
2018-06-10T13:36:39.913Z,5.57
2018-06-10T13:39:09.022Z,4.77
2018-06-10T13:41:38.117Z,5.27
2018-06-10T13:44:06.701Z,5.13
2018-06-10T13:46:35.253Z,4.60
2018-06-10T13:49:04.545Z,4.43
2018-06-10T13:51:33.121Z,4.73
2018-06-10T13:54:01.343Z,7.17
2018-06-10T13:56:29.907Z,6.80
2018-06-10T13:58:58.969Z,6.20
2018-06-10T14:01:28.508Z,4.60
2018-06-10T14:03:57.117Z,4.40
2018-06-10T14:06:25.750Z,4.90
2018-06-10T14:08:54.325Z,5.23
2018-06-10T14:11:22.552Z,5.87
2018-06-10T14:13:51.116Z,6.67
2018-06-10T14:16:19.670Z,5.40
2018-06-10T14:18:47.879Z,4.17
2018-06-10T14:21:16.409Z,4.70
2018-06-10T14:23:44.972Z,4.83
2018-06-10T14:26:13.490Z,3.97
2018-06-10T14:28:41.728Z,3.80
2018-06-10T14:31:10.603Z,4.13
2018-06-10T14:33:39.667Z,4.10
2018-06-10T14:36:07.877Z,7.13
2018-06-10T14:38:36.422Z,5.60
2018-06-10T14:41:04.656Z,5.60
2018-06-10T14:43:33.220Z,4.53
2018-06-10T14:46:01.811Z,6.43
2018-06-10T14:48:30.366Z,4.93
2018-06-10T14:50:58.943Z,6.70
2018-06-10T14:53:27.505Z,4.73
2018-06-10T14:55:56.106Z,4.37
2018-06-10T14:58:24.301Z,5.93
2018-06-10T15:00:52.863Z,4.13
2018-06-10T15:03:21.074Z,4.30
2018-06-10T15:05:49.677Z,7.03
2018-06-10T15:08:18.207Z,4.00
2018-06-10T15:10:46.792Z,7.10
2018-06-10T15:13:15.017Z,4.20
2018-06-10T15:15:43.586Z,4.97
2018-06-10T15:18:12.750Z,5.20
2018-06-10T15:20:41.081Z,3.93
2018-06-10T15:23:10.562Z,4.40
2018-06-10T15:25:39.197Z,4.30
2018-06-10T15:28:07.739Z,5.70
2018-06-10T15:30:36.317Z,4.27
2018-06-10T15:33:04.901Z,4.63
2018-06-10T15:35:33.530Z,4.67
2018-06-10T15:38:02.095Z,4.13
2018-06-10T15:40:31.281Z,4.20
2018-06-10T15:42:59.883Z,7.03
2018-06-10T15:45:29.017Z,3.93
2018-06-10T15:47:57.247Z,4.07
2018-06-10T15:50:25.805Z,5.60
2018-06-10T15:52:55.134Z,5.93
2018-06-10T15:55:23.706Z,5.53
2018-06-10T15:57:52.306Z,6.87
2018-06-10T16:00:20.864Z,5.13
2018-06-10T16:02:49.488Z,5.07
2018-06-10T16:05:18.069Z,8.40
2018-06-10T16:07:46.645Z,5.77
2018-06-10T16:10:15.197Z,5.40
2018-06-10T16:12:43.778Z,5.40
2018-06-10T16:15:12.334Z,5.17
2018-06-10T16:17:40.553Z,4.77
2018-06-10T16:20:09.098Z,6.37
2018-06-10T16:22:37.340Z,5.10
2018-06-10T16:25:05.904Z,5.00
2018-06-10T16:27:34.489Z,7.20
2018-06-10T16:30:03.048Z,4.93
2018-06-10T16:32:31.645Z,6.57
2018-06-10T16:35:00.223Z,4.63
2018-06-10T16:37:28.800Z,4.77
2018-06-10T16:39:57.355Z,6.27
2018-06-10T16:42:25.922Z,5.83
2018-06-10T16:44:54.506Z,6.30
2018-06-10T16:47:23.075Z,7.20
2018-06-10T16:49:52.030Z,6.27
2018-06-10T16:52:21.150Z,5.60
2018-06-10T16:54:49.731Z,5.63
2018-06-10T16:57:18.289Z,9.93
2018-06-10T16:59:47.484Z,7.33
2018-06-10T17:02:16.656Z,6.27
2018-06-10T17:04:45.234Z,8.03
2018-06-10T17:07:13.773Z,8.27
2018-06-10T17:09:43.044Z,7.93
2018-06-10T17:12:11.265Z,6.33
2018-06-10T17:14:41.258Z,7.20
2018-06-10T17:17:09.785Z,6.90
2018-06-10T17:19:38.363Z,6.77
2018-06-10T17:22:06.934Z,7.17
2018-06-10T17:24:35.515Z,11.53
2018-06-10T17:27:04.062Z,8.00
2018-06-10T17:29:32.705Z,9.93
2018-06-10T17:32:01.281Z,7.13
2018-06-10T17:34:30.523Z,7.37
2018-06-10T17:36:58.788Z,7.13
2018-06-10T17:39:28.309Z,8.47
2018-06-10T17:41:56.525Z,6.97
2018-06-10T17:44:25.066Z,6.57
2018-06-10T17:46:53.307Z,6.83
2018-06-10T17:49:21.869Z,6.90
2018-06-10T17:51:51.838Z,6.50
2018-06-10T17:54:20.057Z,7.10
2018-06-10T17:56:49.752Z,6.97
2018-06-10T17:59:18.298Z,7.10
2018-06-10T18:01:46.922Z,6.63
2018-06-10T18:04:15.478Z,8.30
2018-06-10T18:06:43.728Z,7.13
2018-06-10T18:09:12.311Z,7.13
2018-06-10T18:11:40.895Z,7.00
2018-06-10T18:14:09.434Z,8.53
2018-06-10T18:16:37.997Z,8.50
2018-06-10T18:19:06.824Z,8.57
2018-06-10T18:21:35.358Z,6.70
2018-06-10T18:24:03.640Z,8.57
2018-06-10T18:26:32.202Z,7.13
2018-06-10T18:29:00.793Z,8.97
2018-06-10T18:31:29.663Z,6.30
2018-06-10T18:33:58.229Z,6.53
2018-06-10T18:36:26.835Z,6.17
2018-06-10T18:38:55.487Z,6.23
2018-06-10T18:41:24.953Z,6.53
2018-06-10T18:43:53.885Z,6.43
2018-06-10T18:46:22.478Z,7.57
2018-06-10T18:48:51.801Z,7.03
2018-06-10T18:51:20.450Z,7.93
2018-06-10T18:53:49.034Z,6.73
2018-06-10T18:56:18.180Z,6.97
2018-06-10T18:58:46.765Z,7.47
2018-06-10T19:01:16.651Z,6.43
2018-06-10T19:03:45.964Z,5.93
2018-06-10T19:06:14.607Z,6.53
2018-06-10T19:08:43.246Z,7.20
2018-06-10T19:11:11.825Z,7.73
2018-06-10T19:13:40.421Z,7.07
2018-06-10T19:16:09.983Z,7.70
2018-06-10T19:18:39.186Z,7.70
2018-06-10T19:21:08.203Z,7.83
2018-06-10T19:23:36.783Z,8.80
2018-06-10T19:26:05.389Z,6.67
2018-06-10T19:28:34.002Z,6.60
2018-06-10T19:31:03.381Z,6.50
2018-06-10T19:33:31.936Z,7.20
2018-06-10T19:36:02.009Z,7.23
2018-06-10T19:38:30.569Z,7.63
2018-06-10T19:40:59.144Z,6.90
2018-06-10T19:43:27.711Z,8.50
2018-06-10T19:45:57.088Z,7.33
2018-06-10T19:48:26.048Z,7.17
2018-06-10T19:50:54.280Z,7.50
2018-06-10T19:53:22.829Z,7.60
2018-06-10T19:55:51.422Z,7.37
2018-06-10T19:58:20.091Z,7.73
2018-06-10T20:00:48.337Z,9.77
2018-06-10T20:03:17.504Z,8.43
2018-06-10T20:05:46.105Z,10.67
2018-06-10T20:08:14.730Z,7.70
2018-06-10T20:10:42.978Z,7.70
2018-06-10T20:13:11.529Z,11.40
2018-06-10T20:15:40.174Z,9.83
2018-06-10T20:18:08.368Z,7.60
2018-06-10T20:20:36.929Z,7.60
2018-06-10T20:23:05.536Z,7.87
2018-06-10T20:25:34.108Z,7.67
2018-06-10T20:28:02.714Z,10.13
2018-06-10T20:30:31.609Z,8.73
2018-06-10T20:32:59.830Z,9.30
2018-06-10T20:35:28.468Z,9.07
2018-06-10T20:37:57.089Z,12.47
2018-06-10T20:40:26.413Z,13.27
2018-06-10T20:42:54.991Z,8.07
2018-06-10T20:45:23.554Z,7.00
2018-06-10T20:47:52.138Z,8.53
2018-06-10T20:50:20.749Z,9.87
2018-06-10T20:52:50.125Z,7.50
2018-06-10T20:55:18.846Z,8.33
2018-06-10T20:57:47.505Z,11.27
2018-06-10T21:00:16.227Z,9.73
2018-06-10T21:02:45.051Z,10.63
2018-06-10T21:05:13.667Z,10.97
2018-06-10T21:07:42.323Z,12.00
2018-06-10T21:10:10.882Z,8.80
2018-06-10T21:12:39.465Z,9.27
2018-06-10T21:15:07.874Z,12.60
2018-06-10T21:17:36.945Z,9.10
2018-06-10T21:20:05.855Z,15.77
2018-06-10T21:22:34.456Z,11.17
2018-06-10T21:25:03.131Z,9.30
2018-06-10T21:27:31.724Z,8.23
2018-06-10T21:30:00.348Z,10.63
2018-06-10T21:32:28.898Z,10.63
2018-06-10T21:34:57.479Z,8.97
2018-06-10T21:37:26.661Z,12.00
2018-06-10T21:39:55.245Z,8.63
2018-06-10T21:42:24.439Z,10.40
2018-06-10T21:44:53.041Z,10.30
2018-06-10T21:47:21.731Z,11.10
2018-06-10T21:49:50.357Z,11.97
2018-06-10T21:52:18.929Z,10.53
2018-06-10T21:54:47.526Z,10.03
2018-06-10T21:57:16.100Z,9.63
2018-06-10T21:59:44.694Z,12.50
2018-06-10T22:02:13.343Z,12.57
2018-06-10T22:04:41.966Z,13.83
2018-06-10T22:07:10.610Z,11.60
2018-06-10T22:09:40.068Z,10.17
2018-06-10T22:12:08.621Z,11.00
2018-06-10T22:14:37.205Z,12.17
2018-06-10T22:17:06.526Z,16.20
2018-06-10T22:19:35.105Z,11.87
2018-06-10T22:22:03.646Z,15.97
2018-06-10T22:24:32.230Z,12.57
2018-06-10T22:27:00.784Z,14.20
2018-06-10T22:29:29.329Z,15.37
2018-06-10T22:31:57.972Z,13.23
2018-06-10T22:34:26.541Z,12.27
2018-06-10T22:36:55.213Z,12.07
2018-06-10T22:39:24.392Z,12.93
2018-06-10T22:41:52.961Z,11.77
2018-06-10T22:44:22.785Z,14.13
2018-06-10T22:46:51.400Z,14.10
2018-06-10T22:49:19.607Z,15.07
2018-06-10T22:51:48.182Z,17.03
2018-06-10T22:54:39.373Z,16.37
2018-06-10T22:57:08.467Z,19.53
2018-06-10T22:59:37.062Z,16.63
2018-06-10T23:02:05.959Z,16.90
2018-06-10T23:04:34.543Z,19.23
2018-06-10T23:07:02.864Z,15.93
2018-06-10T23:09:31.443Z,16.13
2018-06-10T23:12:00.692Z,18.03
2018-06-10T23:14:29.261Z,15.97
2018-06-10T23:16:57.894Z,17.90
2018-06-10T23:19:26.491Z,17.57
2018-06-10T23:21:55.727Z,18.47
2018-06-10T23:24:24.281Z,16.57
2018-06-10T23:26:52.861Z,20.37
2018-06-10T23:29:21.412Z,16.43
2018-06-10T23:31:50.638Z,14.97
2018-06-10T23:34:19.254Z,16.10
2018-06-10T23:36:48.452Z,17.27
2018-06-10T23:39:17.021Z,16.30
2018-06-10T23:41:45.595Z,16.77
2018-06-10T23:44:14.431Z,14.50
2018-06-10T23:46:43.014Z,18.23
2018-06-10T23:49:14.826Z,15.27
2018-06-10T23:51:44.789Z,15.23
2018-06-10T23:54:13.697Z,14.23
2018-06-10T23:56:42.901Z,15.37
2018-06-10T23:59:11.124Z,14.87
